Time;durP1;ratioP1;P1;durP2;ratioP2;P2;SDS_P1;SDS_P2;PMS_P1;PMS_P2;Temp;Humidity;BMP_temperature;BMP_pressure;BME280_temperature;BME280_humidity;BME280_pressure;Samples;Min_cycle;Max_cycle;Signal;HPM_P1;HPM_P2
2023/03/30 00:01:10;;;;;;;7.60;6.80;;;;;;;6.14;100.00;99525.88;6235283;22;20275;-84
2023/03/30 00:03:38;;;;;;;9.20;6.63;;;;;;;6.12;100.00;99513.78;6234537;22;20167;-84
2023/03/30 00:06:06;;;;;;;7.80;6.73;;;;;;;6.06;100.00;99507.41;6235069;22;20196;-84
2023/03/30 00:08:33;;;;;;;7.00;6.07;;;;;;;5.96;100.00;99508.75;6234442;22;20202;-87
2023/03/30 00:11:02;;;;;;;7.33;5.90;;;;;;;5.93;100.00;99512.63;6234279;22;20168;-87
2023/03/30 00:13:31;;;;;;;7.67;6.60;;;;;;;5.89;100.00;99514.03;6234416;22;20168;-85
2023/03/30 00:15:58;;;;;;;8.80;6.00;;;;;;;5.87;100.00;99509.91;6233967;22;20171;-85
2023/03/30 00:18:27;;;;;;;7.27;6.57;;;;;;;5.86;100.00;99498.44;6259045;22;20187;-84
2023/03/30 00:20:54;;;;;;;8.10;6.20;;;;;;;5.75;100.00;99496.28;6234499;22;20264;-84
2023/03/30 00:23:21;;;;;;;6.80;6.10;;;;;;;5.74;100.00;99490.13;6233767;22;20164;-86
2023/03/30 00:25:48;;;;;;;6.50;5.87;;;;;;;5.75;100.00;99498.94;6234124;22;20613;-86
2023/03/30 00:28:15;;;;;;;8.57;6.37;;;;;;;5.71;100.00;99498.50;6258898;22;20191;-86
2023/03/30 00:30:42;;;;;;;7.33;5.90;;;;;;;5.70;100.00;99494.19;6228153;22;20200;-87
2023/03/30 00:33:09;;;;;;;7.80;5.90;;;;;;;5.74;100.00;99484.81;6203886;22;20167;-85
2023/03/30 00:35:36;;;;;;;7.13;6.43;;;;;;;5.69;100.00;99487.22;6203672;22;20160;-86
2023/03/30 00:38:04;;;;;;;7.43;6.30;;;;;;;5.69;100.00;99497.06;6204856;22;20172;-85
2023/03/30 00:40:33;;;;;;;6.30;5.70;;;;;;;5.67;100.00;99496.41;6203685;22;20207;-86
2023/03/30 00:43:02;;;;;;;6.73;6.00;;;;;;;5.67;100.00;99485.78;6253264;22;20172;-84
2023/03/30 00:45:30;;;;;;;7.03;6.27;;;;;;;5.71;100.00;99489.69;6228592;22;20172;-86
2023/03/30 00:48:00;;;;;;;6.77;6.07;;;;;;;5.70;100.00;99488.88;6228439;22;20198;-86
2023/03/30 00:50:49;;;;;;;6.03;5.43;;;;;;;5.71;100.00;99477.25;6253413;22;20245;-85
2023/03/30 00:53:20;;;;;;;6.77;5.47;;;;;;;5.67;100.00;99478.63;6203326;22;20216;-86
2023/03/30 00:55:49;;;;;;;5.93;5.30;;;;;;;5.68;100.00;99469.66;6203790;22;20184;-87
2023/03/30 00:58:18;;;;;;;5.60;5.10;;;;;;;5.68;100.00;99469.66;6228630;22;20168;-86
2023/03/30 01:00:48;;;;;;;6.03;5.30;;;;;;;5.71;100.00;99449.84;6253492;22;20500;-86
2023/03/30 01:03:17;;;;;;;5.57;4.93;;;;;;;5.76;100.00;99447.41;6204038;22;20177;-86
2023/03/30 01:05:45;;;;;;;8.07;5.80;;;;;;;5.74;100.00;99449.44;6253698;22;20172;-85
2023/03/30 01:08:12;;;;;;;5.30;4.80;;;;;;;5.76;100.00;99445.59;6228107;22;20617;-84
2023/03/30 01:10:40;;;;;;;7.63;5.07;;;;;;;5.78;100.00;99447.22;6228697;22;20611;-85
2023/03/30 01:13:06;;;;;;;5.97;4.70;;;;;;;5.79;100.00;99439.03;6253712;22;20232;-85
2023/03/30 01:15:35;;;;;;;5.07;4.67;;;;;;;5.87;100.00;99430.97;6253840;22;20160;-85
2023/03/30 01:18:26;;;;;;;4.97;4.47;;;;;;;5.91;100.00;99429.56;6203340;22;20172;-85
2023/03/30 01:21:47;;;;;;;5.67;4.67;;;;;;;5.94;100.00;99441.66;6203603;22;20185;-84
2023/03/30 01:24:36;;;;;;;5.13;4.27;;;;;;;6.04;100.00;99450.09;6221293;22;20168;-87
2023/03/30 01:27:25;;;;;;;4.80;4.40;;;;;;;6.05;100.00;99449.91;6253262;22;20164;-86
2023/03/30 01:30:15;;;;;;;4.93;4.53;;;;;;;6.00;100.00;99438.22;6278547;22;20165;-84
2023/03/30 01:33:02;;;;;;;4.90;4.07;;;;;;;6.03;100.00;99443.97;6253258;22;20187;-84
2023/03/30 01:35:56;;;;;;;5.70;4.90;;;;;;;6.12;100.00;99441.97;6228743;22;20175;-85
2023/03/30 01:38:58;;;;;;;5.60;4.60;;;;;;;6.11;100.00;99446.47;6253050;22;20168;-88
2023/03/30 01:41:28;;;;;;;5.23;4.73;;;;;;;6.13;100.00;99436.47;6252719;22;20191;-84
2023/03/30 01:44:20;;;;;;;5.10;4.60;;;;;;;6.16;100.00;99437.88;6203267;22;20214;-87
2023/03/30 01:47:16;;;;;;;5.27;4.60;;;;;;;6.19;100.00;99441.00;6227844;22;20175;-86
2023/03/30 01:50:06;;;;;;;5.53;4.90;;;;;;;6.22;100.00;99442.44;6252749;22;20180;-84
2023/03/30 01:52:40;;;;;;;6.23;4.70;;;;;;;6.30;100.00;99447.59;6228846;22;20172;-86
2023/03/30 01:55:14;;;;;;;5.47;4.63;;;;;;;6.29;100.00;99458.44;6203308;22;20164;-86
2023/03/30 01:58:07;;;;;;;6.37;4.63;;;;;;;6.31;100.00;99467.88;6202955;22;20156;-85
2023/03/30 02:00:37;;;;;;;6.03;4.83;;;;;;;6.41;100.00;99456.88;6253438;22;20180;-87
2023/03/30 02:03:17;;;;;;;6.87;5.20;;;;;;;6.41;100.00;99431.09;6202952;22;20222;-85
2023/03/30 02:05:48;;;;;;;6.03;4.97;;;;;;;6.33;100.00;99454.38;6229499;22;20602;-84
2023/03/30 02:08:18;;;;;;;5.43;4.87;;;;;;;6.47;100.00;99456.09;6228073;22;20200;-85
2023/03/30 02:10:49;;;;;;;5.53;4.70;;;;;;;6.42;100.00;99426.59;6203610;22;20186;-85
2023/03/30 02:13:17;;;;;;;5.93;5.13;;;;;;;6.47;100.00;99429.47;6227728;22;20274;-85
2023/03/30 02:15:50;;;;;;;6.97;5.87;;;;;;;6.44;100.00;99429.88;6252604;22;20247;-84
2023/03/30 02:18:20;;;;;;;6.13;5.50;;;;;;;6.38;100.00;99450.13;6227758;22;20171;-86
2023/03/30 02:20:48;;;;;;;5.93;5.20;;;;;;;6.32;100.00;99445.56;6253389;22;20187;-87
2023/03/30 02:23:17;;;;;;;6.27;5.23;;;;;;;6.35;100.00;99439.03;6252810;22;20255;-87
2023/03/30 02:25:45;;;;;;;5.87;5.20;;;;;;;6.34;100.00;99438.22;6252857;22;20188;-85
2023/03/30 02:28:12;;;;;;;5.97;5.37;;;;;;;6.40;100.00;99428.59;6202724;22;20171;-85
2023/03/30 02:30:42;;;;;;;5.80;5.30;;;;;;;6.41;100.00;99444.38;6234788;22;20195;-83
2023/03/30 02:33:17;;;;;;;6.07;5.03;;;;;;;6.38;100.00;99443.97;6233381;22;20172;-82
2023/03/30 02:36:12;;;;;;;6.37;5.73;;;;;;;6.41;100.00;99448.88;6234496;22;20637;-84
2023/03/30 02:38:57;;;;;;;7.57;5.40;;;;;;;6.40;100.00;99456.03;6283178;22;20243;-86
2023/03/30 02:41:34;;;;;;;6.83;5.40;;;;;;;6.42;100.00;99458.50;6232425;22;20189;-85
2023/03/30 02:44:26;;;;;;;6.10;5.60;;;;;;;6.44;100.00;99451.97;6257931;22;20167;-85
2023/03/30 02:47:17;;;;;;;6.33;5.60;;;;;;;6.49;100.00;99454.03;6258395;22;20176;-83
2023/03/30 02:49:57;;;;;;;7.53;5.37;;;;;;;6.45;100.00;99450.94;6258767;22;20221;-87
2023/03/30 02:52:37;;;;;;;6.43;5.80;;;;;;;6.45;100.00;99445.63;6257696;22;20155;-84
2023/03/30 02:55:06;;;;;;;7.57;5.70;;;;;;;6.45;100.00;99442.16;6258167;22;20184;-85
2023/03/30 02:57:56;;;;;;;10.50;9.40;;;;;;;6.40;100.00;99449.91;6297223;22;20176;-86
2023/03/30 03:01:08;;;;;;;8.00;7.30;;;;;;;6.36;100.00;99453.97;6267726;22;20195;-87
2023/03/30 03:03:57;;;;;;;8.20;5.63;;;;;;;6.37;100.00;99455.63;6262209;22;20168;-84
2023/03/30 03:06:28;;;;;;;6.50;5.90;;;;;;;6.36;100.00;99456.63;6259603;22;20174;-85
2023/03/30 03:08:56;;;;;;;6.73;5.67;;;;;;;6.38;100.00;99449.28;6233020;22;20172;-86
2023/03/30 03:11:26;;;;;;;6.20;5.60;;;;;;;6.38;100.00;99438.66;6236035;22;20159;-86
2023/03/30 03:13:54;;;;;;;6.40;5.80;;;;;;;6.36;100.00;99430.84;6257466;22;20172;-87
2023/03/30 03:16:22;;;;;;;6.93;5.70;;;;;;;6.34;100.00;99443.53;6233004;22;20218;-84
2023/03/30 03:19:10;;;;;;;6.50;5.73;;;;;;;6.36;100.00;99427.38;6241103;22;20173;-85
2023/03/30 03:21:38;;;;;;;6.40;5.77;;;;;;;6.32;100.00;99421.63;6257522;22;20263;-85
2023/03/30 03:24:05;;;;;;;6.17;5.43;;;;;;;6.34;100.00;99419.59;6232407;22;20168;-85
2023/03/30 03:27:04;;;;;;;6.27;5.67;;;;;;;6.31;100.00;99414.66;6271149;22;20637;-85
2023/03/30 03:29:41;;;;;;;6.33;5.70;;;;;;;6.29;100.00;99406.06;6236751;22;20253;-82
2023/03/30 03:32:10;;;;;;;6.93;5.70;;;;;;;6.29;100.00;99407.91;6209055;22;20219;-83
2023/03/30 03:34:44;;;;;;;6.37;5.47;;;;;;;6.28;100.00;99404.41;6228582;22;20175;-84
2023/03/30 03:37:12;;;;;;;6.90;6.00;;;;;;;6.26;100.00;99403.78;6226298;22;20164;-83
2023/03/30 03:39:39;;;;;;;8.83;5.80;;;;;;;6.29;100.00;99399.91;6227408;22;20247;-86
2023/03/30 03:42:12;;;;;;;7.47;5.67;;;;;;;6.25;100.00;99390.69;6227651;22;20180;-84
2023/03/30 03:44:48;;;;;;;6.47;5.67;;;;;;;6.24;100.00;99383.72;6228775;22;20166;-82
2023/03/30 03:47:15;;;;;;;7.20;6.50;;;;;;;6.20;100.00;99383.31;6201535;22;20169;-82
2023/03/30 03:49:44;;;;;;;7.10;6.40;;;;;;;6.22;100.00;99385.75;6201788;22;20165;-82
2023/03/30 03:52:11;;;;;;;6.90;6.20;;;;;;;6.25;100.00;99382.72;6201228;22;20187;-82
2023/03/30 03:54:40;;;;;;;6.83;6.23;;;;;;;6.20;100.00;99380.66;6201142;22;20627;-82
2023/03/30 03:57:08;;;;;;;7.60;6.67;;;;;;;6.25;100.00;99375.56;6201632;22;20192;-82
2023/03/30 03:59:34;;;;;;;8.53;6.47;;;;;;;6.16;100.00;99374.03;6200653;22;20165;-81
2023/03/30 04:02:01;;;;;;;7.13;6.50;;;;;;;6.18;100.00;99366.72;6225767;22;20293;-83
2023/03/30 04:04:28;;;;;;;6.73;6.13;;;;;;;6.13;100.00;99367.28;6225516;22;20275;-82
2023/03/30 04:06:55;;;;;;;7.80;7.00;;;;;;;6.13;100.00;99367.28;6252065;22;20615;-83
2023/03/30 04:09:23;;;;;;;7.10;6.40;;;;;;;6.06;100.00;99370.94;6202958;22;20168;-81
2023/03/30 04:12:25;;;;;;;7.87;7.07;;;;;;;6.07;100.00;99372.56;6169914;23;20170;-81
2023/03/30 04:15:16;;;;;;;8.47;6.77;;;;;;;5.98;100.00;99374.56;6234033;22;20602;-84
2023/03/30 04:18:07;;;;;;;8.43;7.00;;;;;;;5.96;100.00;99394.41;6236684;22;20168;-83
2023/03/30 04:20:55;;;;;;;8.27;7.30;;;;;;;5.86;100.00;99397.41;6190845;22;20199;-82
2023/03/30 04:23:38;;;;;;;8.37;7.47;;;;;;;5.73;100.00;99403.44;6208997;22;20194;-81
2023/03/30 04:26:31;;;;;;;8.13;7.33;;;;;;;5.75;100.00;99405.91;6215603;22;20200;-82
2023/03/30 04:29:28;;;;;;;8.20;7.40;;;;;;;5.78;100.00;99401.00;6175735;23;20577;-81
2023/03/30 04:32:19;;;;;;;8.60;7.80;;;;;;;5.77;100.00;99393.25;6242037;22;20269;-80
2023/03/30 04:34:54;;;;;;;8.77;7.87;;;;;;;5.80;100.00;99394.69;6230771;22;20187;-81
2023/03/30 04:37:45;;;;;;;8.23;7.43;;;;;;;5.87;100.00;99385.78;6238254;22;20175;-81
2023/03/30 04:40:36;;;;;;;8.77;7.97;;;;;;;5.82;100.00;99390.81;6257380;22;20195;-83
2023/03/30 04:43:12;;;;;;;8.40;7.53;;;;;;;5.84;100.00;99387.94;6229681;22;20239;-81
2023/03/30 04:46:01;;;;;;;8.37;7.50;;;;;;;5.86;100.00;99377.97;6258354;22;20148;-81
2023/03/30 04:48:47;;;;;;;8.70;7.90;;;;;;;5.87;100.00;99382.28;6256716;22;20244;-82
2023/03/30 04:51:38;;;;;;;8.67;7.70;;;;;;;5.87;100.00;99369.81;6278584;22;20168;-85
2023/03/30 04:54:23;;;;;;;8.73;7.83;;;;;;;5.88;100.00;99366.13;6256936;22;20227;-83
2023/03/30 04:56:59;;;;;;;8.33;7.47;;;;;;;5.84;100.00;99369.34;6288525;22;20152;-81
2023/03/30 04:59:56;;;;;;;8.80;8.00;;;;;;;5.86;100.00;99360.16;6258853;22;20164;-81
2023/03/30 05:02:43;;;;;;;9.13;8.20;;;;;;;5.90;100.00;99379.22;6255919;22;20213;-82
2023/03/30 05:05:40;;;;;;;15.23;11.00;;;;;;;5.92;100.00;99363.91;6239870;22;20169;-81
2023/03/30 05:08:35;;;;;;;10.47;9.13;;;;;;;5.97;100.00;99348.19;6253929;22;20176;-81
2023/03/30 05:11:28;;;;;;;9.47;8.43;;;;;;;5.97;100.00;99346.34;6272267;22;20176;-80
2023/03/30 05:13:59;;;;;;;9.03;8.13;;;;;;;5.99;100.00;99338.16;6216446;22;20165;-82
2023/03/30 05:16:53;;;;;;;9.20;8.30;;;;;;;6.01;100.00;99344.94;6274808;22;20165;-83
2023/03/30 05:19:57;;;;;;;8.57;7.77;;;;;;;6.03;100.00;99340.25;6246835;23;20176;-81
2023/03/30 05:22:53;;;;;;;9.53;8.53;;;;;;;6.12;100.00;99328.41;6258900;22;20200;-83
2023/03/30 05:25:49;;;;;;;8.47;7.67;;;;;;;6.16;100.00;99331.50;6276803;22;20173;-84
2023/03/30 05:28:51;;;;;;;9.93;8.73;;;;;;;6.23;100.00;99350.97;6243298;22;20610;-83
2023/03/30 05:31:38;;;;;;;12.07;10.30;;;;;;;6.23;100.00;99356.28;6260740;22;20204;-81
2023/03/30 05:34:17;;;;;;;10.97;9.13;;;;;;;6.25;100.00;99348.13;6237188;22;20163;-86
2023/03/30 05:37:06;;;;;;;9.30;8.50;;;;;;;6.24;100.00;99352.63;6261720;22;20251;-82
2023/03/30 05:39:56;;;;;;;8.80;7.90;;;;;;;6.31;100.00;99366.75;6261833;22;20685;-83
2023/03/30 05:42:41;;;;;;;9.43;8.47;;;;;;;6.35;100.00;99354.69;6239345;22;20189;-81
2023/03/30 05:45:17;;;;;;;11.80;8.83;;;;;;;6.39;100.00;99345.28;6235868;22;20172;-85
2023/03/30 05:47:58;;;;;;;10.30;8.80;;;;;;;6.53;100.00;99344.31;6259860;22;20167;-83
2023/03/30 05:50:54;;;;;;;9.57;8.57;;;;;;;6.62;100.00;99348.44;6256578;22;20171;-83
2023/03/30 05:53:34;;;;;;;9.63;8.63;;;;;;;6.77;100.00;99352.78;6259280;22;20179;-83
2023/03/30 05:56:20;;;;;;;9.63;8.63;;;;;;;6.93;100.00;99349.75;6265402;22;20165;-82
2023/03/30 05:58:55;;;;;;;10.20;8.77;;;;;;;7.12;100.00;99350.78;6235857;22;20222;-83
2023/03/30 06:01:40;;;;;;;11.27;10.07;;;;;;;7.32;100.00;99332.97;6265148;22;20186;-82
2023/03/30 06:04:07;;;;;;;11.80;9.87;;;;;;;7.48;100.00;99336.00;6231953;22;20636;-82
2023/03/30 06:06:35;;;;;;;12.17;10.07;;;;;;;7.68;100.00;99352.00;6231733;22;20213;-83
2023/03/30 06:09:03;;;;;;;10.63;8.80;;;;;;;7.79;100.00;99347.88;6231992;22;20250;-81
2023/03/30 06:11:31;;;;;;;9.90;8.90;;;;;;;8.03;100.00;99336.50;6232180;22;20582;-82
2023/03/30 06:14:09;;;;;;;11.70;8.73;;;;;;;8.33;100.00;99328.84;6235100;22;20167;-83
2023/03/30 06:16:37;;;;;;;10.63;9.00;;;;;;;8.47;100.00;99334.94;6257064;22;20237;-83
2023/03/30 06:19:05;;;;;;;10.53;9.00;;;;;;;8.51;100.00;99333.47;6256822;22;20198;-83
2023/03/30 06:21:32;;;;;;;11.27;9.40;;;;;;;8.52;100.00;99327.94;6256795;22;20191;-81
2023/03/30 06:24:22;;;;;;;9.47;8.47;;;;;;;8.53;100.00;99342.94;6251520;22;20166;-84
2023/03/30 06:26:51;;;;;;;12.90;9.73;;;;;;;8.68;100.00;99338.09;6232662;22;20240;-82
2023/03/30 06:29:18;;;;;;;11.63;8.70;;;;;;;8.99;100.00;99317.78;6231214;22;20250;-85
2023/03/30 06:31:45;;;;;;;9.40;8.27;;;;;;;9.19;100.00;99316.56;6256435;22;20195;-83
2023/03/30 06:34:30;;;;;;;9.33;8.10;;;;;;;9.52;100.00;99312.78;6264968;22;20159;-84
2023/03/30 06:36:58;;;;;;;7.70;7.00;;;;;;;9.72;100.00;99316.09;6231788;22;20177;-82
2023/03/30 06:39:27;;;;;;;8.13;7.33;;;;;;;9.89;100.00;99309.09;6232166;22;20171;-84
2023/03/30 06:41:54;;;;;;;7.97;7.17;;;;;;;10.00;100.00;99303.03;6255877;22;20233;-84
2023/03/30 06:44:40;;;;;;;6.90;6.23;;;;;;;10.32;100.00;99314.41;6260557;22;20233;-85
2023/03/30 06:47:12;;;;;;;7.17;6.47;;;;;;;10.49;100.00;99317.28;6233819;22;20233;-82
2023/03/30 06:49:38;;;;;;;8.17;6.67;;;;;;;10.66;100.00;99322.81;6231406;22;20167;-85
2023/03/30 06:52:36;;;;;;;6.80;6.20;;;;;;;10.81;100.00;99321.38;6242645;22;20160;-85
2023/03/30 06:55:04;;;;;;;7.20;6.50;;;;;;;10.85;100.00;99333.25;6256555;22;20254;-83
2023/03/30 06:57:34;;;;;;;7.13;6.50;;;;;;;10.75;100.00;99327.63;6257473;22;20164;-84
2023/03/30 07:00:06;;;;;;;7.63;6.93;;;;;;;10.56;100.00;99326.88;6231539;22;20186;-83
2023/03/30 07:02:40;;;;;;;7.73;7.03;;;;;;;10.45;100.00;99341.00;6294024;22;20179;-83
2023/03/30 07:05:23;;;;;;;8.37;7.50;;;;;;;10.44;100.00;99331.38;6259468;22;20160;-88
2023/03/30 07:08:20;;;;;;;9.20;8.30;;;;;;;10.52;100.00;99320.31;6263793;22;20176;-83
2023/03/30 07:10:51;;;;;;;9.13;8.23;;;;;;;10.66;100.00;99325.50;6232976;22;20163;-84
2023/03/30 07:13:20;;;;;;;9.73;8.83;;;;;;;10.73;100.00;99332.38;6232386;22;20261;-83
2023/03/30 07:15:48;;;;;;;11.40;8.37;;;;;;;10.86;100.00;99318.00;6231590;22;20167;-83
2023/03/30 07:18:15;;;;;;;9.10;8.07;;;;;;;11.01;100.00;99321.88;6231474;22;20171;-83
2023/03/30 07:20:43;;;;;;;8.73;7.80;;;;;;;11.07;100.00;99335.41;6231677;22;20164;-83
2023/03/30 07:23:15;;;;;;;8.37;6.60;;;;;;;11.19;100.00;99334.41;6233320;22;20187;-84
2023/03/30 07:25:44;;;;;;;8.13;7.30;;;;;;;11.34;100.00;99329.41;6255470;22;20163;-84
2023/03/30 07:28:18;;;;;;;7.57;6.87;;;;;;;11.66;100.00;99326.41;6233933;22;20190;-84
2023/03/30 07:30:45;;;;;;;8.20;6.53;;;;;;;11.82;100.00;99337.25;6256295;22;20203;-84
2023/03/30 07:33:13;;;;;;;7.27;6.57;;;;;;;11.93;100.00;99337.50;6256536;22;20187;-83
2023/03/30 07:35:45;;;;;;;7.37;6.50;;;;;;;11.98;100.00;99332.22;6232103;22;20172;-82
2023/03/30 07:38:16;;;;;;;6.90;6.30;;;;;;;11.98;100.00;99326.88;6232504;22;20163;-84
2023/03/30 07:40:48;;;;;;;7.07;6.37;;;;;;;11.78;100.00;99332.59;6233370;22;20156;-84
2023/03/30 07:43:16;;;;;;;6.50;5.90;;;;;;;11.64;100.00;99341.91;6258842;22;20194;-86
2023/03/30 07:45:43;;;;;;;6.90;6.30;;;;;;;11.39;100.00;99326.00;6258457;22;20225;-84
2023/03/30 07:48:16;;;;;;;7.27;6.40;;;;;;;11.36;100.00;99324.63;6260100;22;20221;-85
2023/03/30 07:50:43;;;;;;;7.77;6.80;;;;;;;11.51;100.00;99315.31;6233714;22;20178;-85
2023/03/30 07:53:09;;;;;;;7.93;7.13;;;;;;;11.67;100.00;99328.00;6233395;22;20164;-84
2023/03/30 07:55:37;;;;;;;8.60;7.80;;;;;;;11.86;100.00;99327.69;6234081;22;20163;-85
2023/03/30 07:58:12;;;;;;;8.03;7.33;;;;;;;12.19;100.00;99343.16;6236217;22;20159;-85
2023/03/30 08:00:39;;;;;;;6.50;5.90;;;;;;;12.45;99.50;99331.06;6258442;22;20171;-85
2023/03/30 08:03:44;;;;;;;7.27;6.37;;;;;;;12.85;97.60;99333.69;6274675;22;20180;-85
2023/03/30 08:06:11;;;;;;;6.80;6.17;;;;;;;13.13;97.49;99335.56;6233296;22;20270;-85
2023/03/30 08:08:40;;;;;;;7.17;6.47;;;;;;;13.35;95.22;99331.09;6257977;22;20168;-85
2023/03/30 08:11:07;;;;;;;7.50;6.70;;;;;;;13.28;92.09;99318.88;6233824;22;20254;-85
2023/03/30 08:13:36;;;;;;;7.20;6.00;;;;;;;13.12;91.95;99321.31;6233120;22;20171;-85
2023/03/30 08:16:04;;;;;;;9.07;6.80;;;;;;;13.00;91.35;99333.16;6233043;22;20163;-84
2023/03/30 08:18:31;;;;;;;7.83;6.10;;;;;;;12.93;89.60;99329.78;6258413;22;20171;-84
2023/03/30 08:20:58;;;;;;;8.27;6.80;;;;;;;12.97;87.66;99329.06;6233398;22;20221;-85
2023/03/30 08:23:25;;;;;;;7.03;6.33;;;;;;;13.18;88.92;99330.28;6258055;22;20237;-84
2023/03/30 08:25:56;;;;;;;7.27;6.43;;;;;;;13.47;86.51;99331.03;6232924;22;20192;-86
2023/03/30 08:28:23;;;;;;;7.93;6.70;;;;;;;13.92;85.66;99323.63;6232605;22;20195;-81
2023/03/30 08:30:50;;;;;;;7.07;6.37;;;;;;;14.44;83.30;99331.31;6232303;22;20195;-84
2023/03/30 08:33:18;;;;;;;7.50;6.80;;;;;;;14.73;80.68;99326.53;6256754;22;20162;-81
2023/03/30 08:35:46;;;;;;;7.53;6.70;;;;;;;14.90;80.87;99327.22;6232861;22;20164;-80
2023/03/30 08:38:17;;;;;;;7.13;6.40;;;;;;;14.92;80.91;99333.19;6231437;22;20162;-80
2023/03/30 08:40:47;;;;;;;8.37;7.03;;;;;;;14.89;82.12;99322.91;6256988;22;20169;-80
2023/03/30 08:43:36;;;;;;;7.37;6.67;;;;;;;14.89;80.68;99326.41;6231478;22;20643;-81
2023/03/30 08:46:03;;;;;;;8.07;7.30;;;;;;;14.42;78.53;99318.06;6282285;22;20166;-82
2023/03/30 08:48:32;;;;;;;7.70;6.47;;;;;;;14.39;82.40;99321.28;6281786;22;20176;-83
2023/03/30 08:51:04;;;;;;;8.27;7.10;;;;;;;14.67;81.93;99312.16;6256333;22;20174;-80
2023/03/30 08:53:32;;;;;;;7.93;6.70;;;;;;;14.76;82.06;99309.81;6231311;22;20607;-80
2023/03/30 08:56:08;;;;;;;6.90;6.30;;;;;;;14.73;81.87;99321.94;6231261;22;20173;-80
2023/03/30 08:59:05;;;;;;;7.20;6.50;;;;;;;14.51;82.00;99302.31;6256773;22;20229;-81
2023/03/30 09:01:59;;;;;;;7.53;6.73;;;;;;;14.34;83.06;99323.06;6256138;22;20558;-80
2023/03/30 09:04:43;;;;;;;7.97;6.73;;;;;;;14.29;83.17;99307.66;6256269;22;20219;-79
2023/03/30 09:07:19;;;;;;;10.33;7.80;;;;;;;14.36;83.30;99310.19;6255890;22;20173;-80
2023/03/30 09:09:46;;;;;;;9.20;7.20;;;;;;;14.34;83.36;99296.94;6256234;22;20219;-80
2023/03/30 09:12:33;;;;;;;8.03;7.07;;;;;;;14.45;82.75;99300.59;6256178;22;20166;-80
2023/03/30 09:15:18;;;;;;;8.33;6.70;;;;;;;14.75;81.97;99289.31;6257553;22;20163;-83
2023/03/30 09:17:59;;;;;;;7.53;6.70;;;;;;;15.06;80.44;99299.34;6283063;22;20167;-83
2023/03/30 09:20:29;;;;;;;7.60;6.40;;;;;;;15.29;79.38;99292.78;6257849;22;20179;-83
2023/03/30 09:23:00;;;;;;;6.50;5.90;;;;;;;15.53;78.06;99285.97;6256825;22;20194;-83
2023/03/30 09:25:39;;;;;;;8.60;6.77;;;;;;;15.78;77.58;99296.91;6231277;22;20205;-84
2023/03/30 09:28:23;;;;;;;8.37;6.60;;;;;;;15.98;76.53;99284.59;6256993;22;20194;-84
2023/03/30 09:30:50;;;;;;;8.17;6.23;;;;;;;16.28;76.35;99284.75;6228032;22;20200;-84
2023/03/30 09:33:33;;;;;;;7.00;6.30;;;;;;;16.51;74.97;99291.56;6251806;22;20164;-85
2023/03/30 09:36:06;;;;;;;7.53;6.73;;;;;;;16.78;73.83;99294.09;6225883;22;20167;-84
2023/03/30 09:38:36;;;;;;;7.53;6.57;;;;;;;16.94;73.22;99291.13;6250827;22;20596;-83
2023/03/30 09:41:06;;;;;;;7.40;6.73;;;;;;;16.93;71.95;99294.13;6201275;22;20184;-84
2023/03/30 09:43:40;;;;;;;9.30;6.97;;;;;;;17.11;71.03;99282.78;6276411;22;20257;-84
2023/03/30 09:46:08;;;;;;;8.47;6.53;;;;;;;17.22;71.73;99281.66;6251585;22;20178;-83
2023/03/30 09:48:40;;;;;;;8.30;6.40;;;;;;;17.08;70.97;99277.88;6226153;22;20172;-83
2023/03/30 09:51:25;;;;;;;7.27;6.57;;;;;;;16.85;71.17;99271.09;6225716;22;20161;-83
2023/03/30 09:54:00;;;;;;;7.43;6.73;;;;;;;16.81;71.51;99270.00;6226235;22;20169;-84
2023/03/30 09:56:28;;;;;;;8.13;6.33;;;;;;;16.91;70.93;99266.50;6226129;22;20210;-82
2023/03/30 09:58:55;;;;;;;7.13;6.13;;;;;;;16.96;70.25;99252.97;6251364;22;20192;-83
2023/03/30 10:01:36;;;;;;;6.53;5.90;;;;;;;17.01;69.40;99259.22;6200746;22;20487;-82
2023/03/30 10:04:08;;;;;;;6.70;6.00;;;;;;;16.85;69.93;99254.88;6226352;22;20184;-83
2023/03/30 10:06:45;;;;;;;6.67;6.07;;;;;;;16.81;69.97;99259.19;6226073;22;20161;-83
2023/03/30 10:09:13;;;;;;;7.20;6.50;;;;;;;16.79;69.49;99250.53;6250957;22;20172;-82
2023/03/30 10:11:45;;;;;;;8.73;7.23;;;;;;;16.68;69.51;99243.50;6251355;22;20610;-82
2023/03/30 10:14:28;;;;;;;19.53;17.43;;;;;;;16.77;69.40;99238.34;6225995;22;20188;-83
2023/03/30 10:16:56;;;;;;;8.37;7.50;;;;;;;16.85;69.68;99232.41;6226068;22;20224;-82
2023/03/30 10:19:23;;;;;;;7.07;6.37;;;;;;;16.91;69.95;99224.03;6251223;22;20214;-83
2023/03/30 10:21:56;;;;;;;7.80;6.67;;;;;;;16.85;70.09;99221.59;6225807;22;20251;-82
2023/03/30 10:24:31;;;;;;;6.37;5.87;;;;;;;16.81;69.38;99218.59;6200760;22;20188;-83
2023/03/30 10:27:09;;;;;;;6.17;5.67;;;;;;;16.77;69.00;99224.84;6226027;22;20275;-83
2023/03/30 10:29:36;;;;;;;7.83;6.43;;;;;;;16.61;68.68;99222.09;6251066;22;20172;-83
2023/03/30 10:32:17;;;;;;;7.10;6.20;;;;;;;16.46;68.75;99222.06;6241811;22;20196;-83
2023/03/30 10:34:49;;;;;;;7.10;6.40;;;;;;;16.42;69.20;99212.06;6250700;22;20164;-83
2023/03/30 10:37:26;;;;;;;7.03;5.87;;;;;;;16.48;68.55;99213.66;6251104;22;20164;-82
2023/03/30 10:39:53;;;;;;;6.73;6.00;;;;;;;16.56;68.44;99197.72;6200926;22;20158;-82
2023/03/30 10:42:23;;;;;;;6.87;6.20;;;;;;;16.66;68.63;99188.84;6200807;22;20175;-82
2023/03/30 10:44:55;;;;;;;7.03;6.43;;;;;;;16.71;68.44;99191.53;6225847;22;20191;-82
2023/03/30 10:47:22;;;;;;;6.53;6.03;;;;;;;16.77;68.29;99184.25;6225681;22;20169;-82
2023/03/30 10:50:21;;;;;;;7.97;6.40;;;;;;;16.72;68.48;99175.06;6226051;22;20225;-82
2023/03/30 10:53:08;;;;;;;10.17;7.30;;;;;;;16.75;69.55;99183.72;6225597;22;20199;-84
2023/03/30 10:55:46;;;;;;;7.00;6.30;;;;;;;16.71;69.38;99178.03;6250310;22;20172;-82
2023/03/30 10:58:51;;;;;;;6.80;6.17;;;;;;;16.70;69.22;99169.09;6251093;22;20188;-82
2023/03/30 11:01:28;;;;;;;6.80;6.20;;;;;;;16.77;68.63;99166.13;6225601;22;20161;-83
2023/03/30 11:04:04;;;;;;;7.37;6.60;;;;;;;16.67;68.51;99163.41;6251059;22;20187;-83
2023/03/30 11:06:47;;;;;;;6.50;5.73;;;;;;;16.52;68.34;99158.78;6206682;22;20638;-82
2023/03/30 11:09:17;;;;;;;6.70;6.03;;;;;;;16.19;68.90;99162.78;6200379;22;20175;-82
2023/03/30 11:12:02;;;;;;;8.07;6.03;;;;;;;16.06;69.20;99157.91;6200480;22;20167;-83
2023/03/30 11:14:51;;;;;;;7.33;6.63;;;;;;;15.95;69.74;99163.56;6275935;22;20173;-83
2023/03/30 11:17:27;;;;;;;7.03;6.13;;;;;;;15.80;70.96;99150.81;6252948;22;20198;-82
2023/03/30 11:20:04;;;;;;;8.33;6.43;;;;;;;15.67;71.57;99149.41;6227644;22;20586;-85
2023/03/30 11:22:45;;;;;;;6.87;5.93;;;;;;;15.58;72.51;99142.91;6228251;22;20148;-83
2023/03/30 11:25:38;;;;;;;7.20;5.90;;;;;;;15.67;72.77;99145.91;6252737;22;20243;-81
2023/03/30 11:28:15;;;;;;;8.33;5.70;;;;;;;15.70;74.58;99145.38;6246181;22;20264;-83
2023/03/30 11:30:42;;;;;;;8.00;6.43;;;;;;;15.75;74.88;99135.41;6227314;22;20200;-83
2023/03/30 11:33:43;;;;;;;6.50;5.90;;;;;;;15.70;76.23;99137.25;6227532;22;20223;-82
2023/03/30 11:36:26;;;;;;;7.33;5.87;;;;;;;15.62;77.31;99125.09;6165863;22;20164;-82
2023/03/30 11:38:57;;;;;;;6.97;6.20;;;;;;;15.43;78.87;99129.28;6227606;22;20199;-82
2023/03/30 11:41:35;;;;;;;7.20;6.50;;;;;;;15.29;78.45;99137.06;6202463;22;20164;-82
2023/03/30 11:44:02;;;;;;;6.80;6.20;;;;;;;15.04;79.86;99134.19;6201989;22;20184;-83
2023/03/30 11:47:00;;;;;;;8.40;5.73;;;;;;;14.88;81.68;99127.88;6202023;22;20172;-83
2023/03/30 11:50:00;;;;;;;6.57;5.97;;;;;;;14.79;80.87;99124.03;6198751;22;20203;-83
2023/03/30 11:52:34;;;;;;;6.87;6.03;;;;;;;14.72;81.33;99114.56;6168117;22;20687;-84
2023/03/30 11:55:26;;;;;;;7.07;6.37;;;;;;;14.75;81.00;99111.34;6202762;22;20165;-82
2023/03/30 11:58:06;;;;;;;7.80;6.37;;;;;;;14.86;81.92;99111.16;6227280;22;20164;-83
2023/03/30 12:01:02;;;;;;;8.20;6.80;;;;;;;14.93;83.27;99100.16;6227704;22;20167;-83
2023/03/30 12:03:39;;;;;;;7.73;6.50;;;;;;;15.04;84.69;99092.91;6242331;22;20246;-84
2023/03/30 12:06:33;;;;;;;8.10;7.30;;;;;;;15.22;86.17;99089.78;6202840;22;20206;-83
2023/03/30 12:09:25;;;;;;;8.50;7.63;;;;;;;15.58;86.30;99083.50;6222759;22;20171;-84
2023/03/30 12:12:32;;;;;;;9.17;8.27;;;;;;;16.05;86.01;99072.50;6202704;22;20220;-84
2023/03/30 12:15:21;;;;;;;8.53;7.73;;;;;;;16.63;84.89;99064.97;6240488;22;20181;-83
2023/03/30 12:17:52;;;;;;;8.47;7.57;;;;;;;16.91;83.98;99044.63;6252112;22;20239;-82